Time;durP1;ratioP1;P1;durP2;ratioP2;P2;SDS_P1;SDS_P2;PMS_P1;PMS_P2;Temp;Humidity;BMP_temperature;BMP_pressure;BME280_temperature;BME280_humidity;BME280_pressure;Samples;Min_cycle;Max_cycle;Signal;HPM_P1;HPM_P2
2023/10/02 00:02:41;;;;;;;;;;;20.40;51.60;;;19.62;52.14;101809.28;12266133;19;19918;-84
2023/10/02 00:06:44;;;;;;;;;;;20.40;51.60;;;19.65;52.13;101814.34;12264536;19;19926;-84
2023/10/02 00:10:46;;;;;;;;;;;20.40;51.60;;;19.60;52.12;101801.44;12264118;19;19911;-84
2023/10/02 00:14:48;;;;;;;;;;;20.40;51.70;;;19.63;52.36;101810.97;12266672;19;19919;-84
2023/10/02 00:18:50;;;;;;;;;;;20.40;51.60;;;19.62;52.17;101811.94;12265166;19;20325;-84
2023/10/02 00:22:53;;;;;;;;;;;20.40;51.60;;;19.62;52.12;101812.78;12265567;19;19922;-85
2023/10/02 00:26:58;;;;;;;;;;;20.40;51.70;;;19.62;52.19;101806.66;12264625;19;20333;-84
2023/10/02 00:30:59;;;;;;;;;;;20.30;51.70;;;19.59;52.37;101802.41;12261039;19;19926;-84
2023/10/02 00:35:02;;;;;;;;;;;20.40;51.70;;;19.42;52.57;101771.09;12261324;19;19923;-85
2023/10/02 00:43:33;;;;;;;;;;;20.30;51.70;;;19.54;52.44;101795.78;12265202;19;19942;-84
2023/10/02 00:47:45;;;;;;;;;;;20.40;51.70;;;19.58;52.52;101799.91;12264532;19;19915;-85
2023/10/02 00:51:46;;;;;;;;;;;20.30;51.70;;;19.49;52.61;101782.88;12263023;19;19979;-85
2023/10/02 00:55:48;;;;;;;;;;;20.30;51.80;;;19.48;52.28;101789.16;12264584;19;19922;-84
2023/10/02 00:59:59;;;;;;;;;;;20.30;51.80;;;19.51;52.66;101796.03;12261267;19;19926;-85
2023/10/02 01:04:09;;;;;;;;;;;20.30;51.70;;;19.50;52.44;101797.84;12262362;19;19907;-85
2023/10/02 01:08:24;;;;;;;;;;;20.30;51.80;;;19.51;52.52;101796.88;12260065;19;19929;-85
2023/10/02 01:12:38;;;;;;;;;;;20.30;51.80;;;19.43;52.37;101781.53;12259430;19;19922;-85
2023/10/02 01:16:50;;;;;;;;;;;20.30;51.80;;;19.43;52.67;101791.31;12261940;19;19942;-83
2023/10/02 01:20:59;;;;;;;;;;;20.30;51.90;;;19.41;52.56;101783.47;12260614;19;19919;-83
2023/10/02 01:25:14;;;;;;;;;;;20.30;51.90;;;19.44;52.39;101796.50;12259763;19;19919;-85
2023/10/02 01:29:16;;;;;;;;;;;20.30;51.80;;;19.39;52.54;101798.66;12259351;19;19950;-85
2023/10/02 01:33:21;;;;;;;;;;;20.20;52.00;;;19.36;52.54;101796.22;12258279;19;19926;-84
2023/10/02 01:37:32;;;;;;;;;;;20.10;51.90;;;19.27;52.74;101788.97;12261688;19;19923;-85
2023/10/02 01:41:35;;;;;;;;;;;20.10;52.00;;;19.30;52.68;101799.31;12268050;19;19912;-84
2023/10/02 01:45:42;;;;;;;;;;;20.10;52.00;;;19.32;52.74;101800.06;12272755;19;19922;-84
2023/10/02 01:49:43;;;;;;;;;;;20.10;52.10;;;19.31;52.62;101800.16;12270909;19;19947;-85
2023/10/02 01:54:15;;;;;;;;;;;20.10;52.00;;;19.27;52.96;101788.97;12270155;19;20406;-83
2023/10/02 01:58:16;;;;;;;;;;;20.10;52.10;;;19.31;52.81;101806.31;12271092;19;19915;-84
2023/10/02 02:02:19;;;;;;;;;;;20.10;52.10;;;19.27;52.83;101788.13;12272469;19;19922;-85
2023/10/02 02:06:23;;;;;;;;;;;20.10;52.10;;;19.24;52.89;101791.84;12272287;19;19929;-85
2023/10/02 02:10:27;;;;;;;;;;;20.10;52.10;;;19.22;52.67;101791.94;12268819;19;19919;-84
2023/10/02 02:14:28;;;;;;;;;;;20.10;52.20;;;19.23;52.82;101783.06;12271055;19;19944;-84
2023/10/02 02:18:31;;;;;;;;;;;20.10;52.20;;;19.23;53.03;101775.13;12265672;19;19934;-84
2023/10/02 02:22:33;;;;;;;;;;;20.10;52.20;;;19.30;52.99;101785.25;12272331;19;19910;-84
2023/10/02 02:26:41;;;;;;;;;;;20.10;52.20;;;19.32;53.00;101786.81;12269483;19;19914;-84
2023/10/02 02:30:43;;;;;;;;;;;20.10;52.30;;;19.30;53.17;101780.78;12269482;19;20019;-84
2023/10/02 02:34:46;;;;;;;;;;;20.10;52.20;;;19.22;53.14;101773.41;12269332;19;19925;-84
2023/10/02 02:39:04;;;;;;;;;;;20.10;52.40;;;19.29;53.00;101780.91;12268318;19;19918;-85
2023/10/02 02:43:18;;;;;;;;;;;20.10;52.30;;;19.21;53.02;101768.25;12270233;19;19919;-83
2023/10/02 02:47:21;;;;;;;;;;;20.10;52.40;;;19.30;53.12;101782.59;12270266;19;19947;-83
2023/10/02 02:51:24;;;;;;;;;;;20.10;52.40;;;19.29;53.28;101778.25;12269255;19;19922;-85
2023/10/02 02:55:26;;;;;;;;;;;20.00;52.40;;;19.32;53.26;101778.03;12269481;19;19966;-85
2023/10/02 02:59:28;;;;;;;;;;;20.10;52.50;;;19.32;52.94;101780.69;12267058;19;19915;-85
2023/10/02 03:03:32;;;;;;;;;;;20.10;52.50;;;19.22;53.03;101775.22;12270110;19;19919;-83
2023/10/02 03:07:36;;;;;;;;;;;20.10;52.40;;;19.32;53.22;101797.41;12271838;19;19923;-84
2023/10/02 03:11:40;;;;;;;;;;;20.10;52.50;;;19.28;53.23;101790.66;12268963;19;19910;-84
2023/10/02 03:15:48;;;;;;;;;;;20.10;52.60;;;19.27;53.25;101774.88;12270149;19;19915;-83
2023/10/02 03:19:50;;;;;;;;;;;20.10;52.60;;;19.14;53.23;101756.41;12267615;19;19955;-84
2023/10/02 03:23:58;;;;;;;;;;;20.00;52.60;;;19.17;53.13;101777.34;12267797;19;19919;-84
2023/10/02 03:28:01;;;;;;;;;;;20.00;52.50;;;19.14;53.06;101769.66;12268994;19;19923;-84
2023/10/02 03:32:05;;;;;;;;;;;20.00;52.40;;;19.17;53.43;101774.72;12268187;19;19918;-85
2023/10/02 03:36:10;;;;;;;;;;;20.00;52.50;;;19.17;53.21;101774.72;12272208;19;20268;-84
2023/10/02 03:40:14;;;;;;;;;;;19.90;52.40;;;19.15;53.58;101772.19;12264597;19;19967;-83
2023/10/02 03:44:19;;;;;;;;;;;20.00;52.60;;;19.12;53.24;101761.84;12268863;19;19918;-85
2023/10/02 03:48:20;;;;;;;;;;;19.90;52.50;;;19.05;53.50;101747.34;12266723;19;20257;-85
2023/10/02 03:52:22;;;;;;;;;;;19.90;52.40;;;19.11;53.50;101761.94;12265727;19;19922;-84
2023/10/02 03:56:36;;;;;;;;;;;19.90;52.40;;;19.09;53.48;101753.25;12265128;19;19919;-84
2023/10/02 04:00:44;;;;;;;;;;;19.90;52.40;;;19.07;53.41;101749.91;12264832;19;20333;-85
2023/10/02 04:04:49;;;;;;;;;;;19.90;52.30;;;19.01;53.47;101752.03;12266196;19;20413;-84
2023/10/02 04:09:05;;;;;;;;;;;19.90;52.20;;;18.90;53.42;101735.25;12265038;19;19932;-85
2023/10/02 04:13:08;;;;;;;;;;;19.80;52.20;;;19.00;53.60;101745.03;12264647;19;19919;-84
2023/10/02 04:17:14;;;;;;;;;;;19.80;52.20;;;18.96;53.21;101730.38;12267552;19;19942;-84
2023/10/02 04:21:22;;;;;;;;;;;19.80;52.10;;;18.89;53.59;101725.63;12267513;19;19918;-84
2023/10/02 04:25:25;;;;;;;;;;;19.70;52.00;;;18.86;53.45;101731.16;12263569;19;19923;-83
2023/10/02 04:29:28;;;;;;;;;;;19.60;52.00;;;18.75;53.55;101718.72;12260908;19;19919;-85
2023/10/02 04:33:37;;;;;;;;;;;19.60;52.00;;;18.74;53.26;101733.75;12253046;19;19955;-85
2023/10/02 04:37:38;;;;;;;;;;;19.50;52.00;;;18.67;53.38;101736.94;12262139;19;19930;-85
2023/10/02 04:42:09;;;;;;;;;;;19.50;52.00;;;18.67;53.20;101731.66;12260649;19;19925;-84
2023/10/02 04:46:01;;;;;;;;;;;19.40;52.00;;;18.59;53.46;101737.50;12264174;19;19926;-85
2023/10/02 04:54:11;;;;;;;;;;;19.30;51.90;;;18.52;53.16;101738.88;12263850;19;19914;-85
2023/10/02 04:58:19;;;;;;;;;;;19.30;51.90;;;18.46;53.57;101736.69;12262544;19;19915;-83
2023/10/02 05:02:24;;;;;;;;;;;19.20;51.80;;;18.42;53.42;101736.06;12261267;19;19935;-83
2023/10/02 05:10:50;;;;;;;;;;;19.20;51.80;;;18.20;53.50;101718.28;12259601;19;19955;-84
2023/10/02 05:14:53;;;;;;;;;;;19.10;51.80;;;18.18;53.34;101730.75;12258777;19;20005;-84
2023/10/02 05:18:54;;;;;;;;;;;19.00;51.90;;;18.25;53.30;101747.00;12260648;19;19948;-85
2023/10/02 05:22:59;;;;;;;;;;;19.00;51.90;;;18.19;53.57;101748.28;12261089;19;19919;-84
2023/10/02 05:27:04;;;;;;;;;;;19.00;52.00;;;18.23;53.67;101754.22;12257266;19;19918;-85
2023/10/02 05:31:07;;;;;;;;;;;19.00;52.00;;;18.18;53.59;101749.25;12253765;19;19918;-84
2023/10/02 05:39:39;;;;;;;;;;;18.90;52.10;;;18.15;53.66;101754.75;12249028;19;19925;-83
2023/10/02 05:43:55;;;;;;;;;;;18.90;52.00;;;18.10;53.74;101759.53;12256896;19;19922;-84
2023/10/02 05:47:56;;;;;;;;;;;18.90;52.00;;;17.98;53.50;101736.59;12252408;19;20379;-85
2023/10/02 05:52:00;;;;;;;;;;;18.90;52.00;;;18.01;53.63;101761.03;12252740;19;19926;-84
2023/10/02 06:00:16;;;;;;;;;;;18.70;52.00;;;17.96;53.62;101764.91;12252492;19;19918;-82
2023/10/02 06:04:22;;;;;;;;;;;18.70;52.00;;;17.85;53.54;101744.56;12256999;19;19919;-85
2023/10/02 06:08:29;;;;;;;;;;;18.70;52.10;;;17.81;53.71;101750.97;12257326;19;19956;-83
2023/10/02 06:12:31;;;;;;;;;;;18.60;52.10;;;17.85;53.51;101765.69;12248831;19;19930;-83
2023/10/02 06:16:33;;;;;;;;;;;18.60;52.10;;;17.82;53.64;101768.50;12259485;19;19934;-84
2023/10/02 06:20:34;;;;;;;;;;;18.60;52.20;;;17.79;53.71;101766.09;12253690;19;19984;-84
2023/10/02 06:24:36;;;;;;;;;;;18.60;52.30;;;17.69;53.73;101763.22;12248553;19;19915;-84
2023/10/02 06:28:39;;;;;;;;;;;18.60;52.30;;;17.77;53.76;101781.16;12261699;19;19915;-84
2023/10/02 06:32:52;;;;;;;;;;;18.60;52.40;;;17.77;53.85;101784.69;12261549;19;19918;-82
2023/10/02 06:37:07;;;;;;;;;;;18.60;52.50;;;17.78;54.07;101775.78;12262833;19;19915;-84
2023/10/02 06:41:09;;;;;;;;;;;18.60;52.70;;;17.74;53.97;101768.16;12264122;19;19918;-84
2023/10/02 06:45:15;;;;;;;;;;;18.60;52.70;;;17.78;54.16;101765.22;12256526;19;19983;-83
2023/10/02 06:49:16;;;;;;;;;;;18.60;52.80;;;17.87;54.20;101791.03;12264666;19;19919;-85
2023/10/02 06:53:22;;;;;;;;;;;18.70;53.00;;;17.95;53.97;101789.66;12260679;19;19919;-84
2023/10/02 06:57:24;;;;;;;;;;;18.70;53.50;;;18.01;54.04;101782.16;12265538;19;20269;-85
2023/10/02 07:01:27;;;;;;;;;;;18.80;53.30;;;18.08;54.05;101782.56;12264402;19;19911;-84
2023/10/02 07:05:39;;;;;;;;;;;18.90;53.50;;;18.12;54.25;101776.97;12263513;19;19927;-83
2023/10/02 07:09:41;;;;;;;;;;;19.00;53.40;;;18.13;54.35;101767.22;12255013;19;19907;-85
2023/10/02 07:13:51;;;;;;;;;;;19.10;53.60;;;18.28;54.15;101779.38;12267895;19;19936;-84
2023/10/02 07:18:00;;;;;;;;;;;19.10;53.60;;;18.36;54.42;101781.44;12269576;19;19974;-84
2023/10/02 07:22:02;;;;;;;;;;;19.20;53.60;;;18.44;54.41;101779.09;12276378;19;19923;-85
2023/10/02 07:26:15;;;;;;;;;;;19.30;53.60;;;18.52;54.36;101776.78;12280313;19;19922;-85
2023/10/02 07:30:26;;;;;;;;;;;19.40;53.40;;;18.41;54.56;101746.75;12277445;19;20324;-85
2023/10/02 07:34:28;;;;;;;;;;;19.50;53.60;;;18.66;54.67;101782.84;12275406;19;20543;-85
2023/10/02 07:38:32;;;;;;;;;;;19.60;53.40;;;18.75;54.53;101776.94;12271524;19;19930;-85
2023/10/02 07:42:34;;;;;;;;;;;19.70;53.40;;;18.78;54.45;101771.41;12277480;19;19946;-85
2023/10/02 07:46:36;;;;;;;;;;;19.80;53.40;;;18.85;54.50;101772.66;12279470;19;19941;-85
2023/10/02 07:50:44;;;;;;;;;;;19.90;53.50;;;18.93;54.58;101758.84;12278015;19;19923;-85
2023/10/02 07:54:48;;;;;;;;;;;20.00;53.40;;;19.14;54.74;101767.00;12278841;19;19923;-85
2023/10/02 07:58:55;;;;;;;;;;;20.10;53.50;;;19.21;54.72;101755.84;12270639;19;19923;-84
2023/10/02 08:03:02;;;;;;;;;;;20.20;53.40;;;19.36;54.72;101761.78;12250923;19;19924;-84
2023/10/02 08:07:05;;;;;;;;;;;20.40;53.40;;;19.50;54.80;101758.09;12250618;19;19915;-84
2023/10/02 08:11:11;;;;;;;;;;;20.50;53.50;;;19.70;54.94;101769.84;12248361;19;20344;-83
2023/10/02 08:15:27;;;;;;;;;;;20.70;53.80;;;19.83;55.28;101767.09;12248716;19;19947;-83
2023/10/02 08:19:29;;;;;;;;;;;20.90;53.50;;;19.99;54.98;101766.72;12248080;19;19930;-84
2023/10/02 08:23:31;;;;;;;;;;;21.10;53.60;;;20.22;55.29;101772.84;12250047;19;19915;-83
2023/10/02 08:27:32;;;;;;;;;;;21.30;53.60;;;20.39;54.98;101759.09;12249068;19;20362;-84
2023/10/02 08:31:49;;;;;;;;;;;21.50;53.70;;;20.60;55.32;101751.22;12247335;19;19923;-83
2023/10/02 08:35:51;;;;;;;;;;;21.70;53.60;;;20.78;55.02;101756.84;12244357;19;19919;-83
2023/10/02 08:39:53;;;;;;;;;;;22.00;53.40;;;20.82;55.42;101725.59;12245629;19;20344;-84
2023/10/02 08:43:54;;;;;;;;;;;22.20;53.40;;;21.23;55.27;101766.47;12245760;19;19922;-83
2023/10/02 08:47:56;;;;;;;;;;;22.40;53.30;;;21.30;55.13;101744.53;12245681;19;20340;-83
2023/10/02 08:52:00;;;;;;;;;;;22.60;53.30;;;21.54;55.13;101754.09;12243100;19;19923;-83
2023/10/02 08:56:21;;;;;;;;;;;22.80;53.20;;;21.72;55.18;101757.84;12248894;19;19919;-86
2023/10/02 09:00:24;;;;;;;;;;;23.00;53.00;;;21.90;55.32;101758.09;12242705;19;19911;-84
2023/10/02 09:08:59;;;;;;;;;;;23.30;53.10;;;22.21;55.29;101752.75;12247173;19;19921;-83
2023/10/02 09:13:16;;;;;;;;;;;23.50;52.70;;;22.41;55.18;101754.47;12238574;19;20597;-84
2023/10/02 09:17:22;;;;;;;;;;;23.70;52.50;;;22.62;55.31;101757.03;12241204;19;20326;-82
2023/10/02 09:21:38;;;;;;;;;;;23.90;52.60;;;22.79;54.92;101755.53;12249049;19;19919;-84
2023/10/02 09:26:16;;;;;;;;;;;24.00;52.40;;;22.66;55.18;101704.38;12244757;19;19915;-83
2023/10/02 09:30:21;;;;;;;;;;;24.20;51.90;;;22.81;55.09;101692.28;12256488;19;19923;-83
2023/10/02 09:34:26;;;;;;;;;;;24.20;52.70;;;22.98;55.31;101698.78;12260722;19;19919;-83
2023/10/02 09:38:31;;;;;;;;;;;24.50;52.40;;;22.98;54.87;101669.47;12257075;19;19933;-84
2023/10/02 09:42:33;;;;;;;;;;;24.70;52.10;;;23.46;55.19;101702.31;12246765;19;19970;-83
2023/10/02 09:46:35;;;;;;;;;;;24.80;51.90;;;23.76;54.90;101733.25;12258016;19;19930;-85
2023/10/02 09:50:46;;;;;;;;;;;25.00;52.10;;;23.61;54.59;101680.38;12258343;19;19919;-84
2023/10/02 09:55:12;;;;;;;;;;;25.10;51.10;;;23.71;54.97;101659.03;12259361;19;19910;-85
2023/10/02 09:59:18;;;;;;;;;;;25.10;51.70;;;23.94;54.63;101679.97;12257982;19;19974;-84
2023/10/02 10:03:23;;;;;;;;;;;25.40;52.00;;;24.36;54.77;101706.13;12249741;19;19915;-83
2023/10/02 10:07:59;;;;;;;;;;;25.60;51.90;;;24.53;54.72;101705.34;12253168;19;19923;-82
2023/10/02 10:16:23;;;;;;;;;;;25.90;51.50;;;24.85;54.50;101711.97;12255606;19;19915;-84
2023/10/02 10:20:27;;;;;;;;;;;26.00;50.80;;;24.98;54.40;101707.06;12251045;19;19989;-83
2023/10/02 10:24:32;;;;;;;;;;;26.20;51.20;;;25.09;54.16;101711.34;12250729;19;19918;-83
2023/10/02 10:28:50;;;;;;;;;;;26.30;49.50;;;25.16;54.12;101699.88;12257410;19;19918;-84
2023/10/02 10:37:47;;;;;;;;;;;26.50;51.20;;;25.41;54.33;101699.19;12263789;19;19922;-84
2023/10/02 10:41:57;;;;;;;;;;;26.60;50.60;;;25.47;54.22;101691.38;12260778;19;20344;-83
2023/10/02 10:45:59;;;;;;;;;;;26.70;49.70;;;25.54;53.67;101678.19;12273606;19;19951;-83
2023/10/02 10:50:26;;;;;;;;;;;26.80;50.20;;;25.67;53.91;101685.78;12275700;19;19957;-84
2023/10/02 10:54:30;;;;;;;;;;;26.80;50.70;;;25.78;53.99;101680.97;12273216;19;19955;-85
2023/10/02 10:58:35;;;;;;;;;;;26.90;50.80;;;25.90;53.47;101680.75;12269700;19;19986;-85
2023/10/02 11:02:36;;;;;;;;;;;27.00;49.00;;;25.91;53.44;101656.47;12269455;19;19919;-83
2023/10/02 11:06:40;;;;;;;;;;;27.00;50.30;;;26.03;53.41;101655.19;12277203;19;19923;-84
2023/10/02 11:10:42;;;;;;;;;;;27.10;50.60;;;26.07;53.35;101653.00;12281023;19;20298;-84
2023/10/02 11:14:44;;;;;;;;;;;27.20;50.90;;;26.19;53.77;101657.06;12280408;19;19926;-84
2023/10/02 11:19:23;;;;;;;;;;;27.20;50.70;;;26.30;53.29;101647.84;12279773;19;19926;-83
2023/10/02 11:23:38;;;;;;;;;;;27.40;49.90;;;26.38;53.39;101639.00;12280993;19;19922;-84
2023/10/02 11:27:41;;;;;;;;;;;27.50;50.40;;;26.46;52.98;101634.50;12278593;19;19939;-83
2023/10/02 11:31:45;;;;;;;;;;;27.60;50.40;;;26.51;53.40;101623.28;12273502;19;20384;-83
2023/10/02 11:35:56;;;;;;;;;;;27.60;50.50;;;26.58;53.15;101615.44;12258436;19;19930;-83
2023/10/02 11:39:58;;;;;;;;;;;27.70;50.00;;;26.63;53.18;101613.09;12255672;19;19932;-84
2023/10/02 11:43:59;;;;;;;;;;;27.70;49.90;;;26.68;52.96;101610.72;12264141;19;19915;-82
2023/10/02 11:48:01;;;;;;;;;;;27.80;50.10;;;26.81;52.81;101623.63;12265531;19;19951;-84
2023/10/02 11:52:03;;;;;;;;;;;27.90;50.00;;;26.90;52.77;101625.28;12266031;19;19935;-82
2023/10/02 11:56:05;;;;;;;;;;;27.90;49.40;;;26.97;52.71;101631.63;12267753;19;19919;-85
2023/10/02 12:00:12;;;;;;;;;;;27.90;46.60;;;27.00;52.86;101630.44;12264085;19;19931;-83
2023/10/02 12:04:15;;;;;;;;;;;28.00;49.60;;;27.10;52.68;101625.75;12275765;19;19915;-83
2023/10/02 12:08:20;;;;;;;;;;;28.10;49.50;;;27.18;52.28;101614.19;12271150;19;20002;-83
2023/10/02 12:12:21;;;;;;;;;;;28.20;48.90;;;27.24;52.47;101618.88;12272320;19;20279;-85
2023/10/02 12:16:23;;;;;;;;;;;28.20;48.40;;;27.26;52.13;101608.81;12278469;19;19926;-84
2023/10/02 12:20:25;;;;;;;;;;;28.30;46.00;;;27.34;52.13;101622.19;12264833;19;19914;-83
2023/10/02 12:24:26;;;;;;;;;;;28.30;48.80;;;27.36;52.38;101615.66;12266392;19;19915;-83
2023/10/02 12:28:28;;;;;;;;;;;28.30;48.90;;;27.34;51.93;101590.81;12270032;19;20404;-83
2023/10/02 12:32:31;;;;;;;;;;;28.40;49.00;;;27.44;52.12;101603.22;12281220;19;19930;-84
2023/10/02 12:36:33;;;;;;;;;;;28.40;48.60;;;27.50;51.99;101608.72;12270139;19;20640;-82
2023/10/02 12:40:34;;;;;;;;;;;28.50;49.30;;;27.49;51.83;101592.78;12253148;19;19919;-83
2023/10/02 12:44:40;;;;;;;;;;;28.50;49.40;;;27.55;51.60;101592.09;12251732;19;19942;-82
2023/10/02 12:48:44;;;;;;;;;;;28.60;49.00;;;27.68;51.55;101602.25;12248359;19;19926;-82
2023/10/02 12:52:45;;;;;;;;;;;28.60;48.90;;;27.73;51.63;101600.72;12264043;19;19930;-82
2023/10/02 12:56:46;;;;;;;;;;;28.60;49.10;;;27.77;51.57;101593.97;12254291;19;19926;-82
2023/10/02 13:00:48;;;;;;;;;;;28.70;47.40;;;27.78;51.29;101584.91;12244713;19;20360;-83
2023/10/02 13:04:49;;;;;;;;;;;28.70;48.00;;;27.75;51.19;101573.69;12245852;19;20014;-83
2023/10/02 13:08:53;;;;;;;;;;;28.70;48.40;;;27.83;51.34;101592.47;12244095;19;19970;-82
2023/10/02 13:12:57;;;;;;;;;;;28.70;48.70;;;27.83;51.17;101583.56;12244570;19;19934;-83
2023/10/02 13:16:59;;;;;;;;;;;28.70;48.90;;;27.79;51.11;101581.22;12248815;19;20303;-83
2023/10/02 13:21:01;;;;;;;;;;;28.70;49.00;;;27.80;51.19;101568.66;12248340;19;19978;-82
2023/10/02 13:25:04;;;;;;;;;;;28.70;48.90;;;27.82;51.14;101555.06;12250769;19;20301;-82
2023/10/02 13:29:05;;;;;;;;;;;28.70;49.00;;;27.81;50.97;101546.16;12251954;19;19923;-83
2023/10/02 13:33:08;;;;;;;;;;;28.70;48.90;;;27.91;51.25;101565.56;12251174;19;19911;-83
2023/10/02 13:37:11;;;;;;;;;;;28.80;48.90;;;27.93;50.84;101557.34;12253167;19;20319;-82
2023/10/02 13:41:12;;;;;;;;;;;28.80;48.90;;;27.91;50.90;101554.81;12248076;19;19911;-82
2023/10/02 13:45:14;;;;;;;;;;;28.70;48.60;;;27.86;51.04;101548.31;12248276;19;19957;-82
2023/10/02 13:49:18;;;;;;;;;;;28.70;48.70;;;27.92;50.61;101544.91;12255248;19;19951;-82
2023/10/02 13:53:20;;;;;;;;;;;28.70;48.50;;;27.85;50.58;101528.69;12250330;19;19919;-83
2023/10/02 13:57:22;;;;;;;;;;;28.70;48.60;;;27.88;50.67;101522.13;12243230;19;19915;-82
2023/10/02 14:01:25;;;;;;;;;;;28.70;48.70;;;27.95;50.66;101525.75;12252525;19;20400;-83
2023/10/02 14:05:29;;;;;;;;;;;28.70;48.20;;;27.93;50.33;101519.75;12258775;19;19915;-83
2023/10/02 14:09:33;;;;;;;;;;;28.70;48.50;;;27.94;50.44;101521.41;12255151;19;19919;-83
2023/10/02 14:13:36;;;;;;;;;;;28.70;48.60;;;27.96;50.54;101519.38;12254417;19;19932;-83
2023/10/02 14:17:39;;;;;;;;;;;28.70;47.60;;;27.95;50.10;101523.94;12256186;19;19923;-82
2023/10/02 14:21:41;;;;;;;;;;;28.70;48.10;;;27.97;50.23;101515.69;12258382;19;19927;-83
2023/10/02 14:25:42;;;;;;;;;;;28.70;48.00;;;27.94;50.00;101503.44;12253164;19;19931;-82
2023/10/02 14:29:43;;;;;;;;;;;28.80;48.40;;;28.00;50.12;101509.94;12252840;19;19926;-84
2023/10/02 14:33:45;;;;;;;;;;;28.70;48.40;;;28.01;50.26;101506.25;12254181;19;19919;-83
2023/10/02 14:37:52;;;;;;;;;;;28.70;48.30;;;28.02;50.19;101508.75;12259112;19;20395;-83
2023/10/02 14:41:53;;;;;;;;;;;28.80;48.50;;;28.02;49.82;101511.44;12258607;19;19914;-82
2023/10/02 14:45:57;;;;;;;;;;;28.70;48.30;;;27.97;50.09;101499.56;12255554;19;19911;-82
2023/10/02 14:49:59;;;;;;;;;;;28.80;48.40;;;27.97;50.10;101491.50;12259535;19;19927;-82
2023/10/02 14:54:02;;;;;;;;;;;28.80;48.50;;;28.03;50.04;101501.56;12263258;19;19926;-82
2023/10/02 14:58:06;;;;;;;;;;;28.70;48.40;;;28.02;50.09;101497.19;12269806;19;20270;-83
2023/10/02 15:02:07;;;;;;;;;;;28.80;48.40;;;27.93;49.68;101488.34;12268233;19;19919;-85
2023/10/02 15:06:10;;;;;;;;;;;28.80;48.50;;;28.06;50.21;101503.00;12277323;19;19927;-83
2023/10/02 15:10:15;;;;;;;;;;;28.80;48.40;;;28.01;49.75;101498.19;12275892;19;19911;-83
2023/10/02 15:14:16;;;;;;;;;;;28.80;48.40;;;28.07;49.70;101493.97;12273928;19;19935;-83
2023/10/02 15:18:18;;;;;;;;;;;28.80;48.00;;;28.05;49.61;101496.81;12275741;19;19919;-82
2023/10/02 15:22:19;;;;;;;;;;;28.70;48.20;;;28.05;49.65;101496.81;12279526;19;19923;-83
2023/10/02 15:26:21;;;;;;;;;;;28.80;48.30;;;27.92;49.62;101480.47;12281707;19;19929;-84
2023/10/02 15:30:23;;;;;;;;;;;28.70;48.30;;;28.02;49.79;101497.19;12275372;19;19932;-82
2023/10/02 15:34:24;;;;;;;;;;;28.70;48.30;;;27.96;49.39;101495.22;12277100;19;19911;-84
2023/10/02 15:38:26;;;;;;;;;;;28.70;48.30;;;27.97;49.23;101505.75;12275365;19;19994;-82
2023/10/02 15:42:27;;;;;;;;;;;28.70;48.30;;;27.95;49.42;101497.06;12275176;19;19947;-83
2023/10/02 15:46:28;;;;;;;;;;;28.60;48.30;;;27.83;49.52;101486.94;12275129;19;20617;-82
2023/10/02 15:50:30;;;;;;;;;;;28.60;48.30;;;27.88;49.39;101500.66;12268894;19;20016;-84
2023/10/02 15:54:31;;;;;;;;;;;28.60;48.40;;;27.77;49.44;101491.13;12265005;19;19918;-83
2023/10/02 15:58:34;;;;;;;;;;;28.50;48.40;;;27.73;49.13;101496.03;12262594;19;19914;-83
2023/10/02 16:02:38;;;;;;;;;;;28.50;48.40;;;27.71;49.49;101502.59;12263099;19;19914;-83
2023/10/02 16:06:41;;;;;;;;;;;28.40;48.40;;;27.65;49.63;101506.81;12267274;19;19907;-82
2023/10/02 16:10:43;;;;;;;;;;;28.40;48.40;;;27.56;49.21;101494.47;12263697;19;19929;-82
2023/10/02 16:14:44;;;;;;;;;;;28.30;48.40;;;27.42;49.51;101479.13;12263389;19;19942;-81
2023/10/02 16:18:46;;;;;;;;;;;28.20;48.50;;;27.41;48.89;101499.78;12259988;19;19910;-83
2023/10/02 16:23:00;;;;;;;;;;;28.10;48.50;;;27.40;49.42;101502.63;12260127;19;20212;-83
2023/10/02 16:27:01;;;;;;;;;;;28.00;48.60;;;27.31;49.14;101494.63;12263427;19;19922;-83
2023/10/02 16:31:03;;;;;;;;;;;27.90;48.60;;;27.26;49.02;101499.66;12263041;19;19911;-84
2023/10/02 16:35:06;;;;;;;;;;;27.90;48.60;;;27.19;48.97;101490.63;12264785;19;19923;-84
2023/10/02 16:39:07;;;;;;;;;;;27.80;48.60;;;27.13;48.96;101496.69;12267540;19;20525;-84
2023/10/02 16:43:09;;;;;;;;;;;27.70;48.60;;;27.03;49.10;101499.59;12263125;19;20285;-83
2023/10/02 16:47:11;;;;;;;;;;;27.70;48.60;;;26.93;48.78;101502.47;12259759;19;19915;-83
2023/10/02 16:51:15;;;;;;;;;;;27.60;48.60;;;26.85;49.09;101510.53;12261560;19;19927;-83
2023/10/02 16:55:21;;;;;;;;;;;27.40;48.60;;;26.78;49.38;101508.72;12257471;19;20616;-84
2023/10/02 16:59:22;;;;;;;;;;;27.30;48.70;;;26.68;49.30;101503.53;12262063;19;19943;-82
2023/10/02 17:03:25;;;;;;;;;;;27.20;48.70;;;26.53;49.27;101484.66;12263876;19;19918;-82
2023/10/02 17:07:26;;;;;;;;;;;27.10;48.70;;;26.52;49.13;101499.06;12263580;19;19918;-84
2023/10/02 17:11:28;;;;;;;;;;;27.00;48.80;;;26.44;49.25;101505.25;12259034;19;19926;-82
2023/10/02 17:15:33;;;;;;;;;;;26.90;48.90;;;26.36;48.90;101499.91;12262645;19;19935;-85
2023/10/02 17:19:34;;;;;;;;;;;26.90;49.00;;;26.30;49.02;101495.19;12259177;19;19911;-84
2023/10/02 17:23:36;;;;;;;;;;;26.80;49.00;;;26.23;49.01;101502.25;12261656;19;20434;-84
2023/10/02 17:27:41;;;;;;;;;;;26.70;49.00;;;26.16;49.20;101498.56;12268030;19;19930;-84
2023/10/02 17:31:43;;;;;;;;;;;26.70;49.10;;;26.13;49.31;101498.91;12267380;19;19974;-84
2023/10/02 17:35:45;;;;;;;;;;;26.50;49.20;;;26.05;49.08;101492.53;12267281;19;19918;-85
2023/10/02 17:39:47;;;;;;;;;;;26.50;49.20;;;26.01;49.27;101490.38;12265346;19;19923;-83
2023/10/02 17:43:48;;;;;;;;;;;26.50;49.20;;;25.75;49.47;101461.06;12267456;19;19919;-83
2023/10/02 17:47:50;;;;;;;;;;;26.40;49.20;;;25.91;49.27;101487.88;12262514;19;20543;-83
2023/10/02 17:51:52;;;;;;;;;;;26.40;49.30;;;25.81;49.58;101484.47;12267088;19;19918;-84
2023/10/02 17:55:53;;;;;;;;;;;26.40;49.30;;;25.77;49.12;101483.16;12259419;19;19915;-83
2023/10/02 17:59:58;;;;;;;;;;;26.30;49.30;;;25.65;49.16;101471.09;12260521;19;19923;-83
2023/10/02 18:04:00;;;;;;;;;;;26.30;49.30;;;25.68;49.45;101474.28;12250954;19;19947;-83
2023/10/02 18:08:01;;;;;;;;;;;26.20;49.30;;;25.61;49.45;101471.41;12254320;19;20326;-85
2023/10/02 18:12:03;;;;;;;;;;;26.10;49.20;;;25.51;49.19;101457.34;12257033;19;19959;-84
2023/10/02 18:16:05;;;;;;;;;;;26.00;49.20;;;25.39;49.27;101470.22;12258549;19;19945;-85
2023/10/02 18:20:06;;;;;;;;;;;26.00;49.30;;;25.40;49.65;101471.03;12256171;19;19973;-83
2023/10/02 18:24:11;;;;;;;;;;;25.80;49.30;;;25.34;49.24;101477.88;12260978;19;19930;-85
2023/10/02 18:28:13;;;;;;;;;;;25.80;49.40;;;25.23;49.60;101453.28;12262448;19;19923;-84
2023/10/02 18:32:14;;;;;;;;;;;25.70;49.50;;;25.27;49.33;101452.78;12266423;19;20268;-83
2023/10/02 18:36:18;;;;;;;;;;;25.70;49.60;;;25.26;49.33;101455.63;12266694;19;20348;-83
2023/10/02 18:40:19;;;;;;;;;;;25.60;49.50;;;25.19;49.49;101457.28;12264649;19;19927;-84
2023/10/02 18:44:24;;;;;;;;;;;25.60;49.50;;;25.14;49.75;101458.59;12268509;19;20028;-83
2023/10/02 18:48:29;;;;;;;;;;;25.50;49.40;;;25.02;49.46;101435.81;12261427;19;19911;-83
2023/10/02 18:52:41;;;;;;;;;;;25.50;49.40;;;24.95;49.31;101445.47;12261535;19;19919;-85
2023/10/02 18:56:43;;;;;;;;;;;25.40;49.40;;;24.92;49.72;101445.78;12265820;19;20278;-83